الصفحة الرئيسية
METAR-TAF:

METAR-TAF

مطار :

ميديلين, كولومبيا

دائرة عرض: 06-13N, خط طول: 075-36W, ارتفاع: 1490 متر

مراقبة الطقس الحالي

تاريخ ووقت الإصدار 1ساعة و 13 دقيقة قبل الساعة 16:00UTC
ريح 6 عقدة من الشمال الشرقي
درجة الحرارة 25°درجة مئوية
الرطوبة 47%
ضغط 1022 hPa
الرؤية 10 كم أو أكثر
غيوم متفرقة على ارتفاع 4000 قدم
غيوم متفرقة على ارتفاع 8000 قدم

METAR: SKMD 041600Z 04006KT 9999 SCT040 SCT080 25/13 Q1022

زمن: 12:13 (17:13 UTC)


TAF: مفقودة

أرصاد الطقس والتوقعات من أكثر من 4000 مطار (تقارير الطقس للمطار METAR والتنبؤ بالطقس بالمطارTAF).

المحطات المتاحة هي النقط الصفراء والحمراء على الخريطة.

حرك المؤشر فوق النقطة لمعرفة اسم المحطة.

ثم انقر لمعرفة أرصاد وتوقعات الطقس.

لتغيير الخارطة: اضغط على الأزرار الخضراء مع رمز الصليب الأسود للتكبير. على الزر الأخضر مع شرطة للتصغير، أو على الأسهم الخضراء للخرائط المجاورة.


METAR-TAF: